createdAt,value
2023-04-01T00:02:30.808Z,98815.34
2023-04-01T00:05:33.991Z,98815.22
2023-04-01T00:08:36.739Z,98818.34
2023-04-01T00:11:40.028Z,98791.84
2023-04-01T00:14:42.388Z,98777.31
2023-04-01T00:17:46.060Z,98811.50
2023-04-01T00:20:52.112Z,98807.22
2023-04-01T00:23:54.824Z,98802.66
2023-04-01T00:26:57.217Z,98797.44
2023-04-01T00:29:59.941Z,98800.97
2023-04-01T00:33:02.473Z,98801.41
2023-04-01T00:36:17.389Z,98801.22
2023-04-01T00:39:22.022Z,98789.19
2023-04-01T00:42:25.655Z,98786.19
2023-04-01T00:45:41.082Z,98794.81
2023-04-01T00:48:48.963Z,98784.22
2023-04-01T00:51:54.646Z,98774.78
2023-04-01T00:55:00.486Z,98753.69
2023-04-01T00:58:05.992Z,98795.81
2023-04-01T01:01:10.241Z,98785.50
2023-04-01T01:04:27.093Z,98768.91
2023-04-01T01:07:44.986Z,98780.38
2023-04-01T01:10:50.745Z,98775.22
2023-04-01T01:14:09.482Z,98774.91
2023-04-01T01:17:17.819Z,98774.03
2023-04-01T01:20:36.129Z,98780.28
2023-04-01T01:23:55.629Z,98779.25
2023-04-01T01:27:17.965Z,98784.31
2023-04-01T01:30:46.818Z,98780.97
2023-04-01T01:34:04.795Z,98789.03
2023-04-01T01:37:12.856Z,98790.16
2023-04-01T01:40:17.054Z,98789.28
2023-04-01T01:43:32.202Z,98790.00
2023-04-01T01:46:37.392Z,98770.78
2023-04-01T01:49:41.842Z,98782.28
2023-04-01T01:52:44.886Z,98765.81
2023-04-01T01:55:48.797Z,98763.06
2023-04-01T01:58:56.971Z,98777.97
2023-04-01T02:02:00.368Z,98754.41
2023-04-01T02:05:06.101Z,98764.00
2023-04-01T02:08:18.355Z,98774.56
2023-04-01T02:11:27.973Z,98769.75
2023-04-01T02:14:42.726Z,98760.94
2023-04-01T02:17:47.549Z,98745.22
2023-04-01T02:20:50.715Z,98749.69
2023-04-01T02:23:55.019Z,98753.91
2023-04-01T02:26:57.776Z,98748.78
2023-04-01T02:30:00.663Z,98734.69
2023-04-01T02:33:04.626Z,98752.78
2023-04-01T02:36:15.416Z,98746.53
2023-04-01T02:39:18.346Z,98747.34
2023-04-01T02:42:21.442Z,98726.34
2023-04-01T02:45:23.940Z,98742.97
2023-04-01T02:48:26.799Z,98748.28
2023-04-01T02:51:31.047Z,98752.78
2023-04-01T02:54:35.057Z,98752.09
2023-04-01T02:57:37.447Z,98748.56
2023-04-01T03:00:40.630Z,98759.13
2023-04-01T03:03:43.163Z,98730.66
2023-04-01T03:06:46.365Z,98756.09
2023-04-01T03:09:49.032Z,98727.56
2023-04-01T03:12:51.973Z,98759.09
2023-04-01T03:15:54.586Z,98760.84
2023-04-01T03:19:00.180Z,98736.47
2023-04-01T03:22:02.721Z,98749.28
2023-04-01T03:25:06.971Z,98746.22
2023-04-01T03:28:09.879Z,98749.25
2023-04-01T03:31:13.678Z,98764.06
2023-04-01T03:35:24.985Z,98774.38
2023-04-01T03:38:31.064Z,98765.69
2023-04-01T03:42:17.423Z,98776.72
2023-04-01T03:45:20.228Z,98774.31
2023-04-01T03:49:05.626Z,98780.41
2023-04-01T03:52:10.517Z,98760.31
2023-04-01T03:55:13.371Z,98780.47
2023-04-01T03:58:16.864Z,98775.91
2023-04-01T04:01:24.502Z,98779.44
2023-04-01T04:04:31.398Z,98792.78
2023-04-01T04:07:35.937Z,98789.97
2023-04-01T04:10:42.486Z,98775.31
2023-04-01T04:13:45.549Z,98786.72
2023-04-01T04:16:48.587Z,98794.84
2023-04-01T04:19:51.202Z,98786.44
2023-04-01T04:22:54.060Z,98791.25
2023-04-01T04:25:59.507Z,98814.22
2023-04-01T04:29:04.451Z,98809.22
2023-04-01T04:32:07.316Z,98798.81
2023-04-01T04:35:11.176Z,98797.81
2023-04-01T04:38:13.892Z,98803.25
2023-04-01T04:41:19.222Z,98820.72
2023-04-01T04:44:25.008Z,98828.53
2023-04-01T04:47:28.148Z,98806.00
2023-04-01T04:50:30.830Z,98826.34
2023-04-01T04:53:59.050Z,98829.72
2023-04-01T04:57:15.041Z,98829.13
2023-04-01T05:00:24.487Z,98836.31
2023-04-01T05:03:36.586Z,98836.31
2023-04-01T05:06:39.692Z,98827.50
2023-04-01T05:09:43.757Z,98825.84
2023-04-01T05:12:46.528Z,98818.88
2023-04-01T05:15:53.906Z,98826.66
2023-04-01T05:18:56.828Z,98821.56
2023-04-01T05:21:59.367Z,98838.25
2023-04-01T05:25:02.104Z,98846.13
2023-04-01T05:28:05.261Z,98838.25
2023-04-01T05:31:08.612Z,98844.44
2023-04-01T05:34:15.147Z,98838.28
2023-04-01T05:37:18.380Z,98842.72
2023-04-01T05:40:20.788Z,98847.16
2023-04-01T05:43:24.371Z,98844.56
2023-04-01T05:46:27.545Z,98826.78
2023-04-01T05:49:36.068Z,98839.78
2023-04-01T05:52:40.519Z,98831.66
2023-04-01T05:56:10.733Z,98851.72
2023-04-01T05:59:17.348Z,98846.25
2023-04-01T06:02:21.057Z,98846.19
2023-04-01T06:05:26.589Z,98837.97
2023-04-01T06:08:32.043Z,98844.88
2023-04-01T06:11:37.818Z,98851.56
2023-04-01T06:14:52.030Z,98838.91
2023-04-01T06:17:59.080Z,98850.88
2023-04-01T06:21:09.223Z,98856.13
2023-04-01T06:24:50.245Z,98820.53
2023-04-01T06:28:11.441Z,98866.31
2023-04-01T06:31:27.522Z,98853.94
2023-04-01T06:35:13.920Z,98850.66
2023-04-01T06:38:20.268Z,98863.31
2023-04-01T06:41:35.916Z,98863.66
2023-04-01T06:44:57.610Z,98860.72
2023-04-01T06:48:46.934Z,98871.22
2023-04-01T06:52:24.507Z,98828.38
2023-04-01T06:55:53.416Z,98863.84
2023-04-01T06:59:23.683Z,98868.75
2023-04-01T07:02:54.888Z,98858.03
2023-04-01T07:06:36.677Z,98869.06
2023-04-01T07:09:42.933Z,98878.22
2023-04-01T07:13:14.939Z,98864.44
2023-04-01T07:17:01.415Z,98879.28
2023-04-01T07:20:12.228Z,98874.66
2023-04-01T07:23:32.961Z,98863.69
2023-04-01T07:26:45.603Z,98861.78
2023-04-01T07:29:51.569Z,98873.47
2023-04-01T07:33:00.745Z,98875.00
2023-04-01T07:36:21.660Z,98868.38
2023-04-01T07:40:06.973Z,98869.00
2023-04-01T07:43:24.028Z,98873.44
2023-04-01T07:47:06.822Z,98868.50
2023-04-01T07:50:28.328Z,98863.22
2023-04-01T07:53:51.829Z,98863.81
2023-04-01T07:57:16.509Z,98870.31
2023-04-01T08:00:54.566Z,98874.41
2023-04-01T08:04:37.016Z,98879.47
2023-04-01T08:08:07.823Z,98881.53
2023-04-01T08:11:47.445Z,98881.88
2023-04-01T08:15:23.359Z,98879.69
2023-04-01T08:19:17.771Z,98892.06
2023-04-01T08:22:34.471Z,98885.91
2023-04-01T08:25:46.118Z,98895.16
2023-04-01T08:28:58.402Z,98880.72
2023-04-01T08:32:14.656Z,98891.78
2023-04-01T08:36:02.461Z,98899.13
2023-04-01T08:39:13.782Z,98902.38
2023-04-01T08:42:50.273Z,98899.44
2023-04-01T08:46:51.088Z,98904.44
2023-04-01T08:50:21.190Z,98903.72
2023-04-01T08:53:45.319Z,98907.34
2023-04-01T08:57:06.471Z,98901.19
2023-04-01T09:00:31.514Z,98910.72
2023-04-01T09:04:38.200Z,98900.72
2023-04-01T09:08:22.903Z,98890.38
2023-04-01T09:12:19.391Z,98896.63
2023-04-01T09:16:00.819Z,98922.81
2023-04-01T09:19:16.736Z,98915.25
2023-04-01T09:22:47.371Z,98924.00
2023-04-01T09:26:08.515Z,98917.56
2023-04-01T09:29:49.431Z,98908.63
2023-04-01T09:33:18.617Z,98914.75
2023-04-01T09:36:34.993Z,98917.38
2023-04-01T09:40:19.742Z,98931.28
2023-04-01T09:43:49.658Z,98930.44
2023-04-01T09:47:10.831Z,98932.50
2023-04-01T09:50:33.495Z,98930.75
2023-04-01T09:53:53.600Z,98936.94
2023-04-01T09:57:12.218Z,98934.72
2023-04-01T10:01:17.304Z,98933.84
2023-04-01T10:04:25.935Z,98933.03
2023-04-01T10:08:06.748Z,98931.97
2023-04-01T10:11:56.073Z,98927.00
2023-04-01T10:15:23.835Z,98933.69
2023-04-01T10:18:53.085Z,98941.63
2023-04-01T10:22:32.434Z,98943.41
2023-04-01T10:25:38.023Z,98944.09
2023-04-01T10:29:48.217Z,98940.56
2023-04-01T10:33:03.485Z,98949.06
2023-04-01T10:36:31.279Z,98941.59
2023-04-01T10:40:13.978Z,98946.03
2023-04-01T10:44:16.303Z,98945.38
2023-04-01T10:47:28.088Z,98929.44
2023-04-01T10:50:39.304Z,98947.44
2023-04-01T10:54:12.908Z,98929.44
2023-04-01T10:57:39.342Z,98944.34
2023-04-01T11:01:36.925Z,98950.34
2023-04-01T11:05:21.230Z,98958.03
2023-04-01T11:09:06.540Z,98949.91
2023-04-01T11:12:37.181Z,98961.19
2023-04-01T11:16:23.922Z,98950.44
2023-04-01T11:20:07.554Z,98952.19
2023-04-01T11:23:34.766Z,98958.88
2023-04-01T11:26:58.827Z,98945.56
2023-04-01T11:31:08.928Z,98964.09
2023-04-01T11:34:39.022Z,98948.63
2023-04-01T11:38:03.670Z,98972.06
2023-04-01T11:42:25.805Z,98956.84
2023-04-01T11:51:00.330Z,98959.75
2023-04-01T11:54:41.657Z,98967.97
2023-04-01T11:58:22.181Z,98970.38
2023-04-01T12:01:36.316Z,98979.56
2023-04-01T12:04:58.286Z,98971.13
2023-04-01T12:08:23.142Z,98966.28
2023-04-01T12:11:42.541Z,98989.16
2023-04-01T12:14:49.059Z,98991.47
2023-04-01T12:18:29.981Z,98992.16
2023-04-01T12:21:40.171Z,98991.38
2023-04-01T12:24:45.429Z,98997.56
2023-04-01T12:28:05.175Z,99002.91
2023-04-01T12:31:19.429Z,98995.50
2023-04-01T12:34:46.837Z,98996.97
2023-04-01T12:38:07.491Z,99007.53
2023-04-01T12:41:34.625Z,99006.41
2023-04-01T12:45:15.495Z,99009.94
2023-04-01T12:48:36.540Z,99008.34
2023-04-01T12:51:43.622Z,99014.97
2023-04-01T12:55:22.958Z,99008.16
2023-04-01T12:58:41.299Z,99017.34
2023-04-01T13:02:04.889Z,98999.16
2023-04-01T13:05:32.017Z,99019.25
2023-04-01T13:08:53.633Z,99032.00
2023-04-01T13:12:31.807Z,99031.31
2023-04-01T13:15:37.377Z,99041.84
2023-04-01T13:18:51.558Z,99048.13
2023-04-01T13:22:14.823Z,99034.22
2023-04-01T13:25:24.599Z,99051.91
2023-04-01T13:28:32.444Z,99047.38
2023-04-01T13:32:07.548Z,99037.22
2023-04-01T13:35:23.443Z,99054.03
2023-04-01T13:39:02.966Z,99056.06
2023-04-01T13:42:51.043Z,99066.88
2023-04-01T13:46:02.597Z,99073.00
2023-04-01T13:49:37.617Z,99075.66
2023-04-01T13:53:01.919Z,99073.50
2023-04-01T13:56:16.881Z,99083.16
2023-04-01T13:59:43.215Z,99092.97
2023-04-01T14:03:21.170Z,99086.13
2023-04-01T14:06:36.944Z,99084.22
2023-04-01T14:09:51.732Z,99108.97
2023-04-01T14:13:29.542Z,99101.63
2023-04-01T14:16:55.435Z,99110.03
2023-04-01T14:20:18.504Z,99102.13
2023-04-01T14:24:04.163Z,99103.66
2023-04-01T14:27:30.576Z,99103.94
2023-04-01T14:30:54.754Z,99112.72
2023-04-01T14:34:31.440Z,99114.50
2023-04-01T14:37:46.346Z,99124.25
2023-04-01T14:41:02.877Z,99119.03
2023-04-01T14:44:29.866Z,99124.06
2023-04-01T14:48:09.897Z,99132.94
2023-04-01T14:51:41.172Z,99133.69
2023-04-01T14:54:48.501Z,99140.84
2023-04-01T14:58:12.102Z,99114.63
2023-04-01T15:01:26.924Z,99141.00
2023-04-01T15:04:45.564Z,99122.84
2023-04-01T15:08:17.471Z,99151.69
2023-04-01T15:11:44.280Z,99161.47
2023-04-01T15:15:13.330Z,99150.00
2023-04-01T15:18:41.123Z,99154.22
2023-04-01T15:22:05.769Z,99163.84
2023-04-01T15:25:45.886Z,99171.72
2023-04-01T15:29:10.985Z,99181.53
2023-04-01T15:32:33.613Z,99185.19
2023-04-01T15:35:47.054Z,99187.94
2023-04-01T15:39:16.977Z,99200.38
2023-04-01T15:42:39.788Z,99183.06
2023-04-01T15:46:00.097Z,99195.28
2023-04-01T15:49:21.391Z,99204.50
2023-04-01T15:52:44.595Z,99200.19
2023-04-01T15:55:59.483Z,99201.44
2023-04-01T15:59:31.823Z,99208.44
2023-04-01T16:02:54.335Z,99214.91
2023-04-01T16:06:22.628Z,99240.31
2023-04-01T16:09:49.228Z,99238.69
2023-04-01T16:13:18.641Z,99240.66
2023-04-01T16:16:27.446Z,99251.63
2023-04-01T16:19:39.646Z,99271.19
2023-04-01T16:22:56.837Z,99273.28
2023-04-01T16:26:05.259Z,99273.38
2023-04-01T16:29:30.668Z,99264.09
2023-04-01T16:32:48.070Z,99272.81
2023-04-01T16:36:13.197Z,99280.75
2023-04-01T16:39:45.078Z,99301.19
2023-04-01T16:43:08.597Z,99281.25
2023-04-01T16:46:34.144Z,99304.13
2023-04-01T16:49:42.204Z,99308.47
2023-04-01T16:53:02.424Z,99325.28
2023-04-01T16:56:12.440Z,99318.53
2023-04-01T16:59:19.844Z,99324.69
2023-04-01T17:02:54.848Z,99324.53
2023-04-01T17:06:08.315Z,99341.63
2023-04-01T17:09:23.904Z,99358.56
2023-04-01T17:12:30.556Z,99366.84
2023-04-01T17:15:45.806Z,99348.50
2023-04-01T17:19:27.605Z,99377.50
2023-04-01T17:23:03.747Z,99381.75
2023-04-01T17:26:39.377Z,99367.19
2023-04-01T17:30:13.778Z,99359.38
2023-04-01T17:33:25.912Z,99390.94
2023-04-01T17:37:31.429Z,99393.47
2023-04-01T17:40:59.739Z,99412.16
2023-04-01T17:44:20.245Z,99420.91
2023-04-01T17:47:39.694Z,99426.94
2023-04-01T17:51:02.751Z,99426.94
2023-04-01T17:54:25.255Z,99435.59
2023-04-01T17:57:47.018Z,99442.00
2023-04-01T18:01:21.897Z,99448.22
2023-04-01T18:04:51.334Z,99454.50
2023-04-01T18:08:15.005Z,99457.13
2023-04-01T18:11:37.992Z,99463.34
2023-04-01T18:15:26.531Z,99467.84
2023-04-01T18:18:50.180Z,99467.88
2023-04-01T18:22:28.166Z,99469.78
2023-04-01T18:25:44.130Z,99469.97
2023-04-01T18:29:36.594Z,99480.50
2023-04-01T18:33:00.639Z,99464.75
2023-04-01T18:36:24.232Z,99492.00
2023-04-01T18:39:48.990Z,99487.06
2023-04-01T18:43:08.184Z,99503.78
2023-04-01T18:46:47.491Z,99499.50
2023-04-01T18:50:13.725Z,99517.81
2023-04-01T18:53:40.700Z,99517.84
2023-04-01T18:56:49.219Z,99514.44
2023-04-01T18:59:57.094Z,99516.16
2023-04-01T19:03:05.701Z,99520.63
2023-04-01T19:06:33.835Z,99522.47
2023-04-01T19:09:49.066Z,99528.56
2023-04-01T19:13:20.692Z,99538.25
2023-04-01T19:16:52.030Z,99541.84
2023-04-01T19:20:23.808Z,99548.84
2023-04-01T19:23:47.847Z,99552.56
2023-04-01T19:27:20.166Z,99552.56
2023-04-01T19:30:33.837Z,99537.53
2023-04-01T19:33:54.721Z,99563.94
2023-04-01T19:37:07.065Z,99557.81
2023-04-01T19:40:34.350Z,99578.97
2023-04-01T19:44:13.552Z,99582.53
2023-04-01T19:47:30.415Z,99576.47
2023-04-01T19:50:38.529Z,99587.06
2023-04-01T19:53:56.869Z,99595.81
2023-04-01T19:57:17.197Z,99593.25
2023-04-01T20:00:34.710Z,99596.97
2023-04-01T20:03:47.553Z,99612.94
2023-04-01T20:06:58.482Z,99613.81
2023-04-01T20:10:14.840Z,99604.22
2023-04-01T20:13:56.766Z,99615.75
2023-04-01T20:17:13.934Z,99623.69
2023-04-01T20:20:24.321Z,99628.13
2023-04-01T20:23:45.368Z,99595.66
2023-04-01T20:26:52.988Z,99616.69
2023-04-01T20:30:06.326Z,99626.38
2023-04-01T20:33:46.599Z,99632.50
2023-04-01T20:37:11.117Z,99630.81
2023-04-01T20:40:37.490Z,99645.75
2023-04-01T20:44:14.251Z,99629.97
2023-04-01T20:47:44.404Z,99614.16
2023-04-01T20:50:59.591Z,99630.78
2023-04-01T20:54:34.385Z,99649.25
2023-04-01T20:57:56.290Z,99650.13
2023-04-01T21:01:33.270Z,99631.72
2023-04-01T21:04:56.778Z,99668.75
2023-04-01T21:08:30.485Z,99671.47
2023-04-01T21:11:45.865Z,99667.94
2023-04-01T21:15:05.895Z,99671.44
2023-04-01T21:18:26.278Z,99650.38
2023-04-01T21:21:38.581Z,99682.91
2023-04-01T21:24:56.465Z,99678.53
2023-04-01T21:28:41.990Z,99677.72
2023-04-01T21:31:56.948Z,99690.03
2023-04-01T21:35:37.813Z,99699.72
2023-04-01T21:39:00.309Z,99699.78
2023-04-01T21:42:47.543Z,99668.97
2023-04-01T21:46:17.900Z,99720.06
2023-04-01T21:49:41.339Z,99727.06
2023-04-01T21:53:02.192Z,99718.25
2023-04-01T21:56:41.876Z,99725.31
2023-04-01T21:59:53.587Z,99719.22
2023-04-01T22:03:26.802Z,99733.31
2023-04-01T22:06:38.631Z,99732.44
2023-04-01T22:09:49.434Z,99713.13
2023-04-01T22:13:09.477Z,99748.31
2023-04-01T22:16:56.736Z,99732.47
2023-04-01T22:20:38.640Z,99740.41
2023-04-01T22:23:51.033Z,99735.09
2023-04-01T22:26:55.971Z,99747.47
2023-04-01T22:30:08.394Z,99706.06
2023-04-01T22:33:40.376Z,99757.09
2023-04-01T22:36:56.162Z,99743.94
2023-04-01T22:40:15.346Z,99758.88
2023-04-01T22:43:27.958Z,99763.25
2023-04-01T22:46:51.732Z,99744.78
2023-04-01T22:50:07.084Z,99750.00
2023-04-01T22:53:12.856Z,99771.13
2023-04-01T22:56:23.563Z,99761.41
2023-04-01T22:59:48.506Z,99762.31
2023-04-01T23:03:22.087Z,99752.63
2023-04-01T23:06:40.402Z,99749.94
2023-04-01T23:09:43.098Z,99765.78
2023-04-01T23:12:46.651Z,99761.34
2023-04-01T23:15:49.464Z,99772.78
2023-04-01T23:19:15.795Z,99779.78
2023-04-01T23:22:38.272Z,99780.63
2023-04-01T23:26:14.763Z,99773.59
2023-04-01T23:29:19.416Z,99783.28
2023-04-01T23:32:28.500Z,99773.63
2023-04-01T23:35:31.424Z,99803.56
2023-04-01T23:38:43.236Z,99799.09
2023-04-01T23:41:45.793Z,99788.53
2023-04-01T23:44:51.610Z,99808.78
2023-04-01T23:47:54.190Z,99812.41
2023-04-01T23:50:58.582Z,99797.53
2023-04-01T23:54:23.928Z,99813.41
2023-04-01T23:57:35.253Z,99830.97
